Time;durP1;ratioP1;P1;durP2;ratioP2;P2;SDS_P1;SDS_P2;PMS_P1;PMS_P2;Temp;Humidity;BMP_temperature;BMP_pressure;BME280_temperature;BME280_humidity;BME280_pressure;Samples;Min_cycle;Max_cycle;Signal;HPM_P1;HPM_P2
2023/11/18 00:00:14;;;;;;;25.85;14.57;;;;;;;;;;339759;29;1510;-61
2023/11/18 00:00:25;;;;;;;24.33;14.27;;;;;;;;;;339972;29;1286;-61
2023/11/18 00:00:37;;;;;;;24.33;14.13;;;;;;;;;;339954;29;1379;-61
2023/11/18 00:00:48;;;;;;;24.38;13.82;;;;;;;;;;339981;29;1281;-61
2023/11/18 00:00:59;;;;;;;25.42;13.82;;;;;;;;;;341238;29;1893;-61
2023/11/18 00:01:10;;;;;;;26.13;14.25;;;;;;;;;;339845;29;1288;-61
2023/11/18 00:01:21;;;;;;;25.67;14.10;;;;;;;;;;339947;29;1216;-61
2023/11/18 00:01:33;;;;;;;25.50;14.40;;;;;;;;;;341248;29;1579;-62
2023/11/18 00:01:44;;;;;;;27.02;14.88;;;;;;;;;;341031;29;1395;-62
2023/11/18 00:01:55;;;;;;;27.95;15.25;;;;;;;;;;341157;29;1275;-62
2023/11/18 00:02:06;;;;;;;26.33;14.70;;;;;;;;;;342654;28;1398;-62
2023/11/18 00:02:17;;;;;;;24.90;14.35;;;;;;;;;;341303;29;1576;-62
2023/11/18 00:02:28;;;;;;;25.63;14.15;;;;;;;;;;341253;29;1650;-62
2023/11/18 00:02:42;;;;;;;26.60;14.43;;;;;;;;;;339861;29;1299;-62
2023/11/18 00:02:53;;;;;;;25.48;14.52;;;;;;;;;;341278;29;1386;-62
2023/11/18 00:03:05;;;;;;;23.05;14.50;;;;;;;;;;341226;29;1487;-61
2023/11/18 00:03:16;;;;;;;24.17;14.27;;;;;;;;;;340501;28;1564;-62
2023/11/18 00:03:28;;;;;;;23.80;14.15;;;;;;;;;;339951;29;1342;-62
2023/11/18 00:03:39;;;;;;;23.95;14.18;;;;;;;;;;340010;29;1319;-62
2023/11/18 00:03:50;;;;;;;22.25;13.82;;;;;;;;;;339932;29;1301;-62
2023/11/18 00:04:01;;;;;;;24.52;14.20;;;;;;;;;;339946;29;1487;-61
2023/11/18 00:04:15;;;;;;;25.25;14.40;;;;;;;;;;339894;29;1635;-61
2023/11/18 00:04:26;;;;;;;24.65;14.60;;;;;;;;;;340890;28;1424;-62
2023/11/18 00:04:37;;;;;;;23.05;14.40;;;;;;;;;;341073;29;1532;-62
2023/11/18 00:04:48;;;;;;;25.55;14.68;;;;;;;;;;342420;28;1303;-62
2023/11/18 00:04:59;;;;;;;26.15;14.80;;;;;;;;;;340997;29;1401;-61
2023/11/18 00:05:11;;;;;;;25.27;14.75;;;;;;;;;;341235;29;1421;-61
2023/11/18 00:05:23;;;;;;;23.75;14.70;;;;;;;;;;341246;29;1513;-61
2023/11/18 00:05:34;;;;;;;24.17;14.38;;;;;;;;;;341221;29;1260;-61
2023/11/18 00:05:45;;;;;;;24.50;14.07;;;;;;;;;;340581;29;1571;-61
2023/11/18 00:05:56;;;;;;;23.38;13.85;;;;;;;;;;339322;29;2614;-61
2023/11/18 00:06:08;;;;;;;22.52;13.88;;;;;;;;;;338601;29;1010;-61
2023/11/18 00:06:19;;;;;;;22.23;14.40;;;;;;;;;;341224;29;1331;-61
2023/11/18 00:06:30;;;;;;;22.38;14.60;;;;;;;;;;342424;28;1433;-62
2023/11/18 00:06:41;;;;;;;22.63;14.55;;;;;;;;;;341287;29;1303;-61
2023/11/18 00:06:54;;;;;;;25.65;14.75;;;;;;;;;;338629;29;1264;-61
2023/11/18 00:07:05;;;;;;;27.80;15.43;;;;;;;;;;339919;29;1411;-62
2023/11/18 00:07:16;;;;;;;28.30;14.80;;;;;;;;;;339974;29;1499;-62
2023/11/18 00:07:28;;;;;;;25.52;14.38;;;;;;;;;;340665;29;1427;-63
2023/11/18 00:07:40;;;;;;;24.77;13.95;;;;;;;;;;339815;29;1448;-62
2023/11/18 00:07:51;;;;;;;24.73;14.45;;;;;;;;;;339938;29;1430;-62
2023/11/18 00:08:02;;;;;;;26.58;14.70;;;;;;;;;;339831;29;1303;-62
2023/11/18 00:08:13;;;;;;;27.05;14.85;;;;;;;;;;339491;29;1394;-62
2023/11/18 00:08:25;;;;;;;25.58;14.68;;;;;;;;;;339872;29;1470;-63
2023/11/18 00:08:36;;;;;;;25.42;14.57;;;;;;;;;;339999;29;1478;-61
2023/11/18 00:08:47;;;;;;;25.00;14.30;;;;;;;;;;339917;29;1429;-64
2023/11/18 00:08:58;;;;;;;25.50;14.75;;;;;;;;;;339972;29;1331;-63
2023/11/18 00:09:09;;;;;;;25.35;14.68;;;;;;;;;;339844;29;1474;-60
2023/11/18 00:09:21;;;;;;;26.23;14.43;;;;;;;;;;339942;29;1440;-60
2023/11/18 00:09:32;;;;;;;26.70;14.63;;;;;;;;;;339893;29;1493;-60
2023/11/18 00:09:45;;;;;;;25.23;14.63;;;;;;;;;;341283;29;1259;-61
2023/11/18 00:09:56;;;;;;;26.35;14.43;;;;;;;;;;338599;29;888;-61
2023/11/18 00:10:08;;;;;;;26.27;14.23;;;;;;;;;;339927;29;1336;-61
2023/11/18 00:10:19;;;;;;;25.55;14.05;;;;;;;;;;341317;29;1327;-58
2023/11/18 00:10:30;;;;;;;26.00;14.35;;;;;;;;;;339872;29;1390;-59
2023/11/18 00:10:42;;;;;;;25.83;14.90;;;;;;;;;;341105;29;1499;-60
2023/11/18 00:10:53;;;;;;;25.10;15.20;;;;;;;;;;339933;29;1265;-60
2023/11/18 00:11:04;;;;;;;24.23;15.00;;;;;;;;;;339911;29;1308;-60
2023/11/18 00:11:16;;;;;;;25.20;14.75;;;;;;;;;;338616;29;1310;-61
2023/11/18 00:11:27;;;;;;;24.08;14.73;;;;;;;;;;339311;29;1287;-61
2023/11/18 00:11:38;;;;;;;23.10;14.38;;;;;;;;;;338644;29;1337;-61
2023/11/18 00:11:49;;;;;;;22.50;14.07;;;;;;;;;;338648;29;1273;-61
2023/11/18 00:12:01;;;;;;;24.30;14.25;;;;;;;;;;339952;29;1394;-60
2023/11/18 00:12:14;;;;;;;24.95;14.65;;;;;;;;;;339927;29;1343;-61
2023/11/18 00:12:25;;;;;;;23.77;14.73;;;;;;;;;;339882;29;1426;-61
2023/11/18 00:12:36;;;;;;;23.13;14.50;;;;;;;;;;338632;29;1284;-61
2023/11/18 00:12:47;;;;;;;21.65;13.77;;;;;;;;;;339973;29;1462;-61
2023/11/18 00:12:59;;;;;;;22.80;13.82;;;;;;;;;;339894;29;1327;-60
2023/11/18 00:13:10;;;;;;;22.83;13.77;;;;;;;;;;338625;29;1459;-61
2023/11/18 00:13:21;;;;;;;25.23;14.40;;;;;;;;;;339965;29;1392;-61
2023/11/18 00:13:32;;;;;;;25.52;14.05;;;;;;;;;;339938;29;1268;-61
2023/11/18 00:13:43;;;;;;;24.23;14.10;;;;;;;;;;338569;29;1280;-61
2023/11/18 00:13:54;;;;;;;24.25;14.10;;;;;;;;;;339013;29;1283;-61
2023/11/18 00:14:05;;;;;;;23.27;13.90;;;;;;;;;;341263;29;1425;-61
2023/11/18 00:14:17;;;;;;;22.73;13.82;;;;;;;;;;339528;29;2499;-61
2023/11/18 00:14:29;;;;;;;24.83;14.63;;;;;;;;;;339948;29;1284;-61
2023/11/18 00:14:42;;;;;;;27.33;14.68;;;;;;;;;;339847;29;1489;-61
2023/11/18 00:14:53;;;;;;;25.35;14.38;;;;;;;;;;339830;29;1418;-61
2023/11/18 00:15:05;;;;;;;22.20;14.30;;;;;;;;;;339862;29;1276;-60
2023/11/18 00:15:16;;;;;;;23.70;14.73;;;;;;;;;;338646;29;1575;-60
2023/11/18 00:15:27;;;;;;;25.83;15.45;;;;;;;;;;338658;29;1422;-61
2023/11/18 00:15:38;;;;;;;25.70;15.20;;;;;;;;;;341199;29;1459;-61
2023/11/18 00:15:49;;;;;;;24.42;14.50;;;;;;;;;;342507;28;1567;-60
2023/11/18 00:16:00;;;;;;;22.98;14.13;;;;;;;;;;342911;28;1749;-60
2023/11/18 00:16:15;;;;;;;22.85;14.07;;;;;;;;;;341102;29;1915;-60
2023/11/18 00:16:26;;;;;;;22.67;14.05;;;;;;;;;;339908;29;1436;-62
2023/11/18 00:16:38;;;;;;;21.88;13.52;;;;;;;;;;341224;28;1421;-60
2023/11/18 00:16:49;;;;;;;21.73;13.57;;;;;;;;;;340793;29;1312;-60
2023/11/18 00:17:02;;;;;;;23.30;13.90;;;;;;;;;;339522;29;1346;-60
2023/11/18 00:17:13;;;;;;;24.33;14.15;;;;;;;;;;339832;29;1367;-61
2023/11/18 00:17:24;;;;;;;24.63;14.05;;;;;;;;;;339893;29;1334;-60
2023/11/18 00:17:35;;;;;;;23.30;14.30;;;;;;;;;;339980;29;1318;-59
2023/11/18 00:17:46;;;;;;;23.63;14.52;;;;;;;;;;341213;29;1358;-58
2023/11/18 00:17:58;;;;;;;24.27;14.65;;;;;;;;;;339716;29;1665;-60
2023/11/18 00:18:09;;;;;;;24.17;14.27;;;;;;;;;;341225;29;1296;-59
2023/11/18 00:18:20;;;;;;;24.15;14.75;;;;;;;;;;341018;29;1972;-58
2023/11/18 00:18:31;;;;;;;22.92;14.60;;;;;;;;;;341870;28;1961;-58
2023/11/18 00:18:43;;;;;;;21.65;14.50;;;;;;;;;;339892;29;1336;-58
2023/11/18 00:18:54;;;;;;;21.45;14.35;;;;;;;;;;339934;29;1330;-60
2023/11/18 00:19:05;;;;;;;22.67;14.50;;;;;;;;;;339919;29;1433;-60
2023/11/18 00:19:17;;;;;;;21.75;13.95;;;;;;;;;;339919;29;1323;-59
2023/11/18 00:19:28;;;;;;;22.13;14.20;;;;;;;;;;339954;29;1464;-60
2023/11/18 00:19:39;;;;;;;22.75;14.68;;;;;;;;;;341270;29;958;-61
2023/11/18 00:19:50;;;;;;;23.02;14.52;;;;;;;;;;341244;29;1450;-59
2023/11/18 00:20:03;;;;;;;22.75;14.30;;;;;;;;;;340002;29;1316;-61
2023/11/18 00:20:16;;;;;;;24.40;14.73;;;;;;;;;;339880;29;1426;-60
2023/11/18 00:20:27;;;;;;;24.70;14.98;;;;;;;;;;339705;29;1525;-60
2023/11/18 00:20:38;;;;;;;25.10;15.10;;;;;;;;;;339959;29;1263;-60
2023/11/18 00:20:50;;;;;;;26.02;15.10;;;;;;;;;;341243;29;1432;-60
2023/11/18 00:21:01;;;;;;;26.00;14.60;;;;;;;;;;341291;29;1538;-59
2023/11/18 00:21:12;;;;;;;25.25;14.32;;;;;;;;;;342363;28;1308;-61
2023/11/18 00:21:24;;;;;;;23.77;14.50;;;;;;;;;;341210;29;1407;-61
2023/11/18 00:21:36;;;;;;;25.83;15.05;;;;;;;;;;342587;28;1443;-60
2023/11/18 00:21:47;;;;;;;25.85;15.15;;;;;;;;;;343886;28;1337;-61
2023/11/18 00:21:58;;;;;;;26.13;14.93;;;;;;;;;;343347;28;1819;-62
2023/11/18 00:22:09;;;;;;;26.55;15.40;;;;;;;;;;341219;29;1527;-60
2023/11/18 00:22:20;;;;;;;27.20;15.57;;;;;;;;;;339894;29;1552;-62
2023/11/18 00:22:31;;;;;;;25.20;15.20;;;;;;;;;;339928;29;1841;-60
2023/11/18 00:22:43;;;;;;;24.52;14.73;;;;;;;;;;338636;29;1410;-60
2023/11/18 00:22:55;;;;;;;27.48;15.70;;;;;;;;;;339869;29;1509;-59
2023/11/18 00:23:06;;;;;;;27.90;15.85;;;;;;;;;;339929;29;1406;-60
2023/11/18 00:23:17;;;;;;;26.67;15.77;;;;;;;;;;339898;29;1284;-61
2023/11/18 00:23:29;;;;;;;24.98;14.93;;;;;;;;;;339935;29;1271;-60
2023/11/18 00:23:40;;;;;;;25.33;14.85;;;;;;;;;;339357;29;1306;-60
2023/11/18 00:23:51;;;;;;;26.05;15.15;;;;;;;;;;339925;29;1311;-60
2023/11/18 00:24:02;;;;;;;27.05;15.50;;;;;;;;;;339926;29;1394;-60
2023/11/18 00:24:14;;;;;;;27.25;15.30;;;;;;;;;;338647;29;1224;-61
2023/11/18 00:24:25;;;;;;;28.73;15.73;;;;;;;;;;338491;29;1666;-61
2023/11/18 00:24:36;;;;;;;29.05;16.00;;;;;;;;;;339939;29;1421;-60
2023/11/18 00:24:47;;;;;;;27.33;15.82;;;;;;;;;;341186;29;1259;-61
2023/11/18 00:24:58;;;;;;;25.25;15.45;;;;;;;;;;339979;29;1291;-61
2023/11/18 00:25:10;;;;;;;25.17;15.25;;;;;;;;;;339889;29;1267;-60
2023/11/18 00:25:22;;;;;;;25.40;14.93;;;;;;;;;;342516;28;1325;-60
2023/11/18 00:25:35;;;;;;;25.90;14.88;;;;;;;;;;342534;28;1319;-61
2023/11/18 00:25:46;;;;;;;26.15;15.35;;;;;;;;;;342545;28;893;-60
2023/11/18 00:25:57;;;;;;;26.38;15.23;;;;;;;;;;341392;28;1283;-60
2023/11/18 00:26:10;;;;;;;26.02;15.02;;;;;;;;;;340966;29;1492;-61
2023/11/18 00:26:21;;;;;;;26.25;14.65;;;;;;;;;;340023;29;1480;-60
2023/11/18 00:26:32;;;;;;;25.70;14.57;;;;;;;;;;339815;29;1319;-60
2023/11/18 00:26:43;;;;;;;24.95;14.45;;;;;;;;;;339823;29;1454;-61
2023/11/18 00:26:55;;;;;;;25.55;14.43;;;;;;;;;;341196;29;1434;-60
2023/11/18 00:27:06;;;;;;;25.75;14.75;;;;;;;;;;341182;29;1469;-61
2023/11/18 00:27:17;;;;;;;24.83;14.52;;;;;;;;;;339982;29;1383;-60
2023/11/18 00:27:28;;;;;;;24.60;14.57;;;;;;;;;;338503;29;1431;-60
2023/11/18 00:27:39;;;;;;;23.58;14.50;;;;;;;;;;339843;29;1558;-61
2023/11/18 00:27:50;;;;;;;25.38;14.75;;;;;;;;;;339922;29;1495;-60
2023/11/18 00:28:01;;;;;;;25.55;14.65;;;;;;;;;;338568;29;1299;-60
2023/11/18 00:28:13;;;;;;;25.17;14.82;;;;;;;;;;339031;29;1417;-60
2023/11/18 00:28:24;;;;;;;25.02;14.73;;;;;;;;;;341272;29;1437;-61
2023/11/18 00:28:35;;;;;;;24.98;14.32;;;;;;;;;;341126;29;1421;-61
2023/11/18 00:28:47;;;;;;;24.13;14.15;;;;;;;;;;339960;29;1518;-61
2023/11/18 00:29:00;;;;;;;24.90;14.40;;;;;;;;;;341193;29;1346;-61
2023/11/18 00:29:11;;;;;;;25.20;14.40;;;;;;;;;;339686;29;1437;-61
2023/11/18 00:29:23;;;;;;;25.02;14.80;;;;;;;;;;341234;29;1291;-61
2023/11/18 00:29:34;;;;;;;24.88;14.73;;;;;;;;;;339910;29;1413;-62
2023/11/18 00:29:45;;;;;;;23.67;14.63;;;;;;;;;;339935;29;1464;-61
2023/11/18 00:29:56;;;;;;;25.17;14.63;;;;;;;;;;339948;29;1455;-60
2023/11/18 00:30:08;;;;;;;25.75;14.85;;;;;;;;;;339840;29;1395;-61
2023/11/18 00:30:19;;;;;;;27.23;14.75;;;;;;;;;;339926;29;1407;-61
2023/11/18 00:30:30;;;;;;;24.90;14.32;;;;;;;;;;338601;29;1501;-60
2023/11/18 00:30:41;;;;;;;24.80;14.23;;;;;;;;;;339447;29;1295;-60
2023/11/18 00:30:52;;;;;;;24.40;14.73;;;;;;;;;;339413;29;1406;-60
2023/11/18 00:31:04;;;;;;;25.67;15.00;;;;;;;;;;340551;29;1282;-61
2023/11/18 00:31:15;;;;;;;25.98;15.00;;;;;;;;;;340632;29;1468;-60
2023/11/18 00:31:27;;;;;;;24.48;14.88;;;;;;;;;;339644;29;1877;-61
2023/11/18 00:31:38;;;;;;;22.67;14.60;;;;;;;;;;339903;29;1334;-60
2023/11/18 00:31:49;;;;;;;23.50;14.68;;;;;;;;;;341245;29;1676;-61
2023/11/18 00:32:01;;;;;;;26.15;14.60;;;;;;;;;;339928;29;1764;-61
2023/11/18 00:32:12;;;;;;;28.60;15.02;;;;;;;;;;342447;28;1447;-60
2023/11/18 00:32:23;;;;;;;29.60;14.68;;;;;;;;;;342481;28;1510;-61
2023/11/18 00:32:35;;;;;;;26.73;14.75;;;;;;;;;;343766;28;1732;-60
2023/11/18 00:32:46;;;;;;;27.80;14.63;;;;;;;;;;342573;28;1437;-61
2023/11/18 00:32:57;;;;;;;25.30;14.30;;;;;;;;;;341045;29;1431;-60
2023/11/18 00:33:08;;;;;;;25.15;14.43;;;;;;;;;;341165;29;1442;-60
2023/11/18 00:33:19;;;;;;;24.52;14.63;;;;;;;;;;339909;29;1328;-60
2023/11/18 00:33:30;;;;;;;24.60;14.75;;;;;;;;;;341104;29;1315;-60
2023/11/18 00:33:41;;;;;;;24.95;14.73;;;;;;;;;;342505;28;1442;-60
2023/11/18 00:33:53;;;;;;;25.23;14.55;;;;;;;;;;341248;28;1290;-60
2023/11/18 00:34:04;;;;;;;25.23;14.38;;;;;;;;;;340610;29;1312;-60
2023/11/18 00:34:15;;;;;;;23.98;14.43;;;;;;;;;;341210;29;1693;-60
2023/11/18 00:34:26;;;;;;;25.08;14.55;;;;;;;;;;343738;28;1331;-60
2023/11/18 00:34:37;;;;;;;23.98;14.43;;;;;;;;;;343888;28;1471;-60
2023/11/18 00:34:48;;;;;;;24.92;14.63;;;;;;;;;;341233;28;876;-60
2023/11/18 00:35:00;;;;;;;24.70;14.75;;;;;;;;;;338565;29;1554;-60
2023/11/18 00:35:11;;;;;;;24.50;14.95;;;;;;;;;;338510;29;1066;-61
2023/11/18 00:35:23;;;;;;;23.38;14.63;;;;;;;;;;340755;28;1449;-61
2023/11/18 00:35:34;;;;;;;23.80;14.73;;;;;;;;;;341211;29;1458;-60
2023/11/18 00:35:45;;;;;;;24.35;14.70;;;;;;;;;;341820;28;1346;-60
2023/11/18 00:35:56;;;;;;;25.08;15.00;;;;;;;;;;343841;28;1447;-60
2023/11/18 00:36:07;;;;;;;24.77;15.15;;;;;;;;;;342445;28;1991;-60
2023/11/18 00:36:19;;;;;;;25.50;15.15;;;;;;;;;;341187;29;1477;-60
2023/11/18 00:36:30;;;;;;;23.83;14.52;;;;;;;;;;339824;29;1271;-60
2023/11/18 00:36:41;;;;;;;23.48;14.57;;;;;;;;;;341431;28;1905;-60
2023/11/18 00:36:52;;;;;;;22.67;14.25;;;;;;;;;;339806;29;1390;-60
2023/11/18 00:37:03;;;;;;;23.60;14.25;;;;;;;;;;342500;28;1507;-60
2023/11/18 00:37:14;;;;;;;24.08;14.13;;;;;;;;;;341165;28;1279;-60
2023/11/18 00:37:25;;;;;;;25.33;14.15;;;;;;;;;;340879;29;2029;-60
2023/11/18 00:37:36;;;;;;;23.90;13.55;;;;;;;;;;342537;28;1615;-60
2023/11/18 00:37:48;;;;;;;24.80;13.85;;;;;;;;;;341205;29;1367;-61
2023/11/18 00:37:59;;;;;;;24.33;13.98;;;;;;;;;;341057;28;1507;-61
2023/11/18 00:38:10;;;;;;;25.85;14.48;;;;;;;;;;342509;28;1402;-60
2023/11/18 00:38:21;;;;;;;24.77;14.20;;;;;;;;;;342660;28;1354;-60
2023/11/18 00:38:32;;;;;;;24.67;13.95;;;;;;;;;;341001;29;1521;-60
2023/11/18 00:38:43;;;;;;;25.05;13.82;;;;;;;;;;341243;29;1275;-60
2023/11/18 00:38:54;;;;;;;25.08;14.00;;;;;;;;;;341165;29;1721;-60
2023/11/18 00:39:05;;;;;;;24.77;14.15;;;;;;;;;;339701;29;1422;-60
2023/11/18 00:39:16;;;;;;;24.40;14.38;;;;;;;;;;339896;29;1532;-61
2023/11/18 00:39:28;;;;;;;24.27;14.25;;;;;;;;;;339672;29;1347;-60
2023/11/18 00:39:39;;;;;;;24.77;14.60;;;;;;;;;;339902;29;1470;-61
2023/11/18 00:39:50;;;;;;;24.70;14.82;;;;;;;;;;341208;28;1631;-60
2023/11/18 00:40:01;;;;;;;25.60;15.23;;;;;;;;;;341266;29;1326;-61
2023/11/18 00:40:12;;;;;;;28.27;15.10;;;;;;;;;;341104;29;1504;-60
2023/11/18 00:40:23;;;;;;;29.85;15.30;;;;;;;;;;341167;28;1199;-61
2023/11/18 00:40:35;;;;;;;29.42;15.25;;;;;;;;;;340345;29;1593;-60
2023/11/18 00:40:46;;;;;;;26.40;15.18;;;;;;;;;;341230;29;1288;-61
2023/11/18 00:40:57;;;;;;;24.08;14.68;;;;;;;;;;342535;28;1331;-60
2023/11/18 00:41:08;;;;;;;22.95;14.75;;;;;;;;;;341170;29;1464;-61
2023/11/18 00:41:19;;;;;;;23.20;14.20;;;;;;;;;;341233;29;1475;-60
2023/11/18 00:41:30;;;;;;;23.15;14.15;;;;;;;;;;342449;28;1423;-61
2023/11/18 00:41:41;;;;;;;24.35;14.43;;;;;;;;;;339843;29;1454;-60
2023/11/18 00:41:52;;;;;;;24.20;14.82;;;;;;;;;;339870;29;1302;-61
2023/11/18 00:42:04;;;;;;;23.20;14.35;;;;;;;;;;338567;29;1613;-61
2023/11/18 00:42:15;;;;;;;23.45;14.30;;;;;;;;;;339508;29;1731;-61
2023/11/18 00:42:26;;;;;;;24.63;14.20;;;;;;;;;;338494;29;1423;-60
2023/11/18 00:42:38;;;;;;;24.35;14.55;;;;;;;;;;339879;29;1479;-60
2023/11/18 00:42:49;;;;;;;23.98;14.40;;;;;;;;;;339864;29;1466;-60
2023/11/18 00:43:02;;;;;;;24.00;14.38;;;;;;;;;;339789;29;1189;-60
2023/11/18 00:43:13;;;;;;;24.55;14.60;;;;;;;;;;338630;29;1300;-60
2023/11/18 00:43:24;;;;;;;24.38;14.80;;;;;;;;;;339748;29;1450;-60
2023/11/18 00:43:35;;;;;;;24.17;14.95;;;;;;;;;;339868;29;1484;-61
2023/11/18 00:43:47;;;;;;;23.23;14.65;;;;;;;;;;340200;29;1284;-61
2023/11/18 00:43:58;;;;;;;23.80;14.70;;;;;;;;;;341192;28;1549;-60
2023/11/18 00:44:09;;;;;;;23.23;14.63;;;;;;;;;;341143;29;1429;-61
2023/11/18 00:44:21;;;;;;;24.63;14.88;;;;;;;;;;339850;29;1319;-61
2023/11/18 00:44:32;;;;;;;23.92;14.60;;;;;;;;;;339939;29;1331;-61
2023/11/18 00:44:43;;;;;;;24.08;14.50;;;;;;;;;;339885;29;1320;-61
2023/11/18 00:44:55;;;;;;;22.33;14.13;;;;;;;;;;341115;29;1417;-61
2023/11/18 00:45:07;;;;;;;24.08;14.45;;;;;;;;;;341209;29;1500;-61
2023/11/18 00:45:18;;;;;;;24.88;14.48;;;;;;;;;;341173;29;1046;-61
2023/11/18 00:45:29;;;;;;;24.30;14.50;;;;;;;;;;340921;29;1918;-62
2023/11/18 00:45:43;;;;;;;23.92;14.45;;;;;;;;;;339903;29;1595;-61
2023/11/18 00:45:54;;;;;;;22.00;13.90;;;;;;;;;;341106;29;1322;-61
2023/11/18 00:46:05;;;;;;;22.17;13.95;;;;;;;;;;341184;29;1889;-61
2023/11/18 00:46:17;;;;;;;22.50;13.80;;;;;;;;;;341208;29;1491;-61
2023/11/18 00:46:28;;;;;;;25.40;14.20;;;;;;;;;;340833;29;1480;-61
2023/11/18 00:46:39;;;;;;;26.23;14.50;;;;;;;;;;339894;29;1360;-61
2023/11/18 00:46:51;;;;;;;27.35;14.52;;;;;;;;;;339322;29;1549;-62
2023/11/18 00:47:03;;;;;;;24.55;14.68;;;;;;;;;;340748;29;1457;-61
2023/11/18 00:47:14;;;;;;;24.48;14.88;;;;;;;;;;339837;29;1292;-61
2023/11/18 00:47:25;;;;;;;24.83;15.07;;;;;;;;;;339909;29;1496;-61
2023/11/18 00:47:36;;;;;;;24.45;14.90;;;;;;;;;;338581;29;1419;-61
2023/11/18 00:47:47;;;;;;;23.58;14.50;;;;;;;;;;339904;29;1280;-61
2023/11/18 00:47:59;;;;;;;22.95;14.10;;;;;;;;;;339877;29;1668;-60
2023/11/18 00:48:10;;;;;;;23.55;13.93;;;;;;;;;;340746;29;1417;-61
2023/11/18 00:48:21;;;;;;;26.15;14.27;;;;;;;;;;341240;29;1283;-60
2023/11/18 00:48:32;;;;;;;26.42;14.73;;;;;;;;;;341128;29;1289;-60
2023/11/18 00:48:43;;;;;;;25.77;14.82;;;;;;;;;;340974;29;1593;-61
2023/11/18 00:48:57;;;;;;;24.85;14.90;;;;;;;;;;339828;29;1479;-61
2023/11/18 00:49:10;;;;;;;23.83;14.65;;;;;;;;;;338541;29;1461;-61
2023/11/18 00:49:21;;;;;;;22.90;14.18;;;;;;;;;;339927;29;1334;-60
2023/11/18 00:49:33;;;;;;;23.75;14.32;;;;;;;;;;339875;29;1319;-60
2023/11/18 00:49:45;;;;;;;24.75;14.43;;;;;;;;;;341036;29;1480;-61
2023/11/18 00:49:57;;;;;;;25.17;14.65;;;;;;;;;;341214;29;1488;-60
2023/11/18 00:50:08;;;;;;;23.55;14.30;;;;;;;;;;339832;29;1066;-61
2023/11/18 00:50:19;;;;;;;23.60;14.50;;;;;;;;;;339612;29;1500;-61
2023/11/18 00:50:33;;;;;;;23.65;14.75;;;;;;;;;;339835;29;1541;-60
2023/11/18 00:50:44;;;;;;;24.80;14.80;;;;;;;;;;339970;29;1282;-60
2023/11/18 00:50:56;;;;;;;24.30;14.43;;;;;;;;;;339830;29;1547;-61
2023/11/18 00:51:07;;;;;;;23.98;14.52;;;;;;;;;;338540;29;1682;-61
2023/11/18 00:51:18;;;;;;;22.92;14.23;;;;;;;;;;340300;29;1528;-61
2023/11/18 00:51:29;;;;;;;22.80;13.90;;;;;;;;;;341128;29;1555;-61
2023/11/18 00:51:43;;;;;;;23.48;13.50;;;;;;;;;;341278;29;1267;-60
2023/11/18 00:51:54;;;;;;;24.92;13.80;;;;;;;;;;340627;29;1656;-61
2023/11/18 00:52:06;;;;;;;23.42;13.75;;;;;;;;;;338551;29;1393;-61
2023/11/18 00:52:17;;;;;;;22.90;13.85;;;;;;;;;;338622;29;1278;-61
2023/11/18 00:52:28;;;;;;;20.73;13.80;;;;;;;;;;338652;29;1422;-61
2023/11/18 00:52:41;;;;;;;21.75;14.20;;;;;;;;;;338557;29;1283;-61
2023/11/18 00:52:52;;;;;;;22.85;14.32;;;;;;;;;;339904;29;1348;-61
2023/11/18 00:53:05;;;;;;;22.95;13.82;;;;;;;;;;338655;29;1324;-60
2023/11/18 00:53:16;;;;;;;23.27;13.70;;;;;;;;;;339828;29;1272;-61
2023/11/18 00:53:27;;;;;;;23.04;13.88;;;;;;;;;;339905;29;1389;-60
2023/11/18 00:53:39;;;;;;;21.48;13.80;;;;;;;;;;342577;28;1443;-60
2023/11/18 00:53:50;;;;;;;22.30;13.95;;;;;;;;;;342592;28;1390;-61
2023/11/18 00:54:03;;;;;;;24.00;13.93;;;;;;;;;;342586;28;1297;-60
2023/11/18 00:54:14;;;;;;;24.55;14.15;;;;;;;;;;341153;29;1275;-60
2023/11/18 00:54:25;;;;;;;23.08;13.80;;;;;;;;;;341198;29;1286;-60
2023/11/18 00:54:36;;;;;;;21.60;13.13;;;;;;;;;;342260;28;1344;-62
2023/11/18 00:54:47;;;;;;;23.27;13.45;;;;;;;;;;339952;29;1400;-63
2023/11/18 00:54:58;;;;;;;24.27;13.85;;;;;;;;;;339951;29;1275;-63
2023/11/18 00:55:10;;;;;;;25.65;14.88;;;;;;;;;;340603;29;1716;-63
2023/11/18 00:55:21;;;;;;;26.75;15.40;;;;;;;;;;339909;29;1307;-62
2023/11/18 00:55:33;;;;;;;25.40;15.10;;;;;;;;;;339920;29;1426;-61
2023/11/18 00:55:44;;;;;;;24.60;14.38;;;;;;;;;;339961;29;1280;-62
2023/11/18 00:55:55;;;;;;;23.88;14.07;;;;;;;;;;339854;29;1271;-62
2023/11/18 00:56:09;;;;;;;24.27;14.13;;;;;;;;;;339840;29;1407;-62
2023/11/18 00:56:23;;;;;;;24.08;14.27;;;;;;;;;;341248;29;1284;-62
2023/11/18 00:56:34;;;;;;;23.10;14.15;;;;;;;;;;339898;29;1466;-62
2023/11/18 00:56:46;;;;;;;23.50;14.05;;;;;;;;;;338790;29;1525;-62
2023/11/18 00:56:57;;;;;;;23.27;13.75;;;;;;;;;;339869;29;1411;-62
2023/11/18 00:57:08;;;;;;;23.13;13.95;;;;;;;;;;339820;29;1467;-62
2023/11/18 00:57:19;;;;;;;24.92;13.98;;;;;;;;;;338636;29;1259;-62
2023/11/18 00:57:31;;;;;;;24.38;13.82;;;;;;;;;;339846;29;1398;-61
2023/11/18 00:57:42;;;;;;;26.95;14.38;;;;;;;;;;339888;29;1308;-60
2023/11/18 00:57:53;;;;;;;24.98;14.40;;;;;;;;;;339935;29;1288;-60
2023/11/18 00:58:05;;;;;;;25.13;14.90;;;;;;;;;;339928;29;1500;-61
2023/11/18 00:58:16;;;;;;;23.08;14.20;;;;;;;;;;341098;29;1426;-61
2023/11/18 00:58:28;;;;;;;22.98;14.15;;;;;;;;;;341907;28;1493;-61
2023/11/18 00:58:40;;;;;;;22.25;13.52;;;;;;;;;;342605;28;1339;-61
2023/11/18 00:58:52;;;;;;;23.40;14.00;;;;;;;;;;341262;29;1584;-61
2023/11/18 00:59:03;;;;;;;23.52;13.82;;;;;;;;;;338573;29;1529;-60
2023/11/18 00:59:15;;;;;;;24.35;14.15;;;;;;;;;;339921;29;1474;-61
2023/11/18 00:59:26;;;;;;;23.05;14.00;;;;;;;;;;339911;29;1456;-61
2023/11/18 00:59:41;;;;;;;22.83;14.10;;;;;;;;;;341183;29;1239;-61
2023/11/18 00:59:53;;;;;;;23.83;13.70;;;;;;;;;;341219;29;1137;-62
2023/11/18 01:00:04;;;;;;;22.83;13.75;;;;;;;;;;339253;29;1368;-61
2023/11/18 01:00:16;;;;;;;23.50;13.93;;;;;;;;;;342485;28;1413;-62
2023/11/18 01:00:27;;;;;;;22.98;13.88;;;;;;;;;;339870;29;1600;-62
2023/11/18 01:00:38;;;;;;;22.40;13.63;;;;;;;;;;339970;29;1014;-61
2023/11/18 01:00:49;;;;;;;23.35;13.80;;;;;;;;;;339845;29;1499;-61
2023/11/18 01:01:00;;;;;;;22.02;13.77;;;;;;;;;;339966;29;1531;-61
2023/11/18 01:01:11;;;;;;;23.17;13.68;;;;;;;;;;338602;29;1209;-62
2023/11/18 01:01:22;;;;;;;22.10;13.48;;;;;;;;;;339776;29;1446;-61
2023/11/18 01:01:33;;;;;;;23.77;13.63;;;;;;;;;;339893;29;1248;-61
2023/11/18 01:01:44;;;;;;;23.65;13.80;;;;;;;;;;339776;29;1335;-61
2023/11/18 01:01:56;;;;;;;24.52;13.93;;;;;;;;;;339886;29;1350;-62
2023/11/18 01:02:08;;;;;;;25.25;14.18;;;;;;;;;;341190;29;1268;-61
2023/11/18 01:02:19;;;;;;;25.05;13.77;;;;;;;;;;339875;29;1443;-62
2023/11/18 01:02:30;;;;;;;22.70;13.50;;;;;;;;;;339873;29;1493;-64
2023/11/18 01:02:42;;;;;;;23.30;13.27;;;;;;;;;;338607;29;1287;-63
2023/11/18 01:02:57;;;;;;;23.92;13.60;;;;;;;;;;338596;29;1597;-63
2023/11/18 01:03:10;;;;;;;23.83;13.95;;;;;;;;;;338469;29;1390;-64
2023/11/18 01:03:21;;;;;;;23.25;13.77;;;;;;;;;;339731;29;1578;-63
2023/11/18 01:03:33;;;;;;;23.42;13.85;;;;;;;;;;339927;29;1316;-64
2023/11/18 01:03:45;;;;;;;23.10;13.82;;;;;;;;;;338649;29;1429;-62
2023/11/18 01:03:59;;;;;;;24.02;13.68;;;;;;;;;;338590;29;1256;-63
2023/11/18 01:04:10;;;;;;;21.27;13.70;;;;;;;;;;338588;29;1328;-63
2023/11/18 01:04:21;;;;;;;23.30;14.20;;;;;;;;;;340030;29;1534;-63
2023/11/18 01:04:33;;;;;;;23.38;14.30;;;;;;;;;;339876;29;1308;-63
2023/11/18 01:04:45;;;;;;;23.80;14.10;;;;;;;;;;339991;29;1523;-63
2023/11/18 01:04:56;;;;;;;23.23;13.75;;;;;;;;;;340980;29;1450;-63
2023/11/18 01:05:10;;;;;;;25.23;13.93;;;;;;;;;;341193;29;1387;-62
2023/11/18 01:05:21;;;;;;;26.08;14.30;;;;;;;;;;339982;29;1331;-62
2023/11/18 01:05:33;;;;;;;24.17;14.07;;;;;;;;;;340919;29;1296;-61
2023/11/18 01:05:44;;;;;;;22.83;13.57;;;;;;;;;;341242;29;1290;-62
2023/11/18 01:05:55;;;;;;;21.83;13.32;;;;;;;;;;341049;29;2969;-62
2023/11/18 01:06:06;;;;;;;24.98;13.60;;;;;;;;;;342538;28;1488;-62
2023/11/18 01:06:17;;;;;;;27.15;13.80;;;;;;;;;;342613;28;1268;-62
2023/11/18 01:06:28;;;;;;;26.15;13.88;;;;;;;;;;341011;28;1439;-62
2023/11/18 01:06:39;;;;;;;20.23;13.52;;;;;;;;;;341273;29;1505;-63
2023/11/18 01:06:51;;;;;;;19.55;13.32;;;;;;;;;;342623;28;1353;-63
2023/11/18 01:07:02;;;;;;;20.98;13.57;;;;;;;;;;341150;28;1278;-63
2023/11/18 01:07:13;;;;;;;21.52;13.30;;;;;;;;;;339892;29;1552;-62
2023/11/18 01:07:24;;;;;;;22.88;13.68;;;;;;;;;;338619;29;1487;-62
2023/11/18 01:07:36;;;;;;;22.00;13.38;;;;;;;;;;338619;29;1273;-62
2023/11/18 01:07:47;;;;;;;23.17;13.50;;;;;;;;;;338672;29;1441;-63
2023/11/18 01:07:58;;;;;;;21.80;12.98;;;;;;;;;;338648;29;1280;-62
2023/11/18 01:08:09;;;;;;;22.58;12.98;;;;;;;;;;339693;29;1325;-61
2023/11/18 01:08:20;;;;;;;22.40;13.20;;;;;;;;;;341134;29;1470;-60
2023/11/18 01:08:32;;;;;;;23.35;13.85;;;;;;;;;;343819;28;1179;-60
2023/11/18 01:08:46;;;;;;;23.63;14.38;;;;;;;;;;343948;28;1255;-60